createdAt,value
2019-02-19T00:00:48.467Z,19.33
2019-02-19T00:01:57.864Z,19.4
2019-02-19T00:03:07.878Z,19.39
2019-02-19T00:04:17.344Z,19.33
2019-02-19T00:05:27.345Z,19.29
2019-02-19T00:06:37.093Z,19.29
2019-02-19T00:07:46.815Z,19.31
2019-02-19T00:08:56.266Z,19.31
2019-02-19T00:10:05.982Z,19.28
2019-02-19T00:11:15.463Z,19.33
2019-02-19T00:12:25.426Z,19.31
2019-02-19T00:13:35.445Z,19.31
2019-02-19T00:14:45.172Z,19.23
2019-02-19T00:15:54.685Z,19.22
2019-02-19T00:17:04.157Z,19.29
2019-02-19T00:18:14.141Z,19.26
2019-02-19T00:19:24.103Z,19.19
2019-02-19T00:20:33.818Z,19.32
2019-02-19T00:21:43.549Z,19.31
2019-02-19T00:22:53.540Z,19.25
2019-02-19T00:24:03.527Z,19.23
2019-02-19T00:25:12.997Z,19.21
2019-02-19T00:26:22.501Z,19.19
2019-02-19T00:27:31.976Z,19.19
2019-02-19T00:28:41.692Z,19.14
2019-02-19T00:29:51.401Z,19.21
2019-02-19T00:31:01.109Z,19.22
2019-02-19T00:32:11.109Z,19.21
2019-02-19T00:33:20.839Z,19.19
2019-02-19T00:34:30.828Z,19.14
2019-02-19T00:35:40.803Z,19.18
2019-02-19T00:36:50.546Z,19.19
2019-02-19T00:38:00.258Z,19.22
2019-02-19T00:39:11.356Z,19.11
2019-02-19T00:40:21.342Z,19.19
2019-02-19T00:41:30.805Z,19.14
2019-02-19T00:42:40.534Z,19.14
2019-02-19T00:43:49.975Z,19.08
2019-02-19T00:44:59.746Z,19.07
2019-02-19T00:46:09.226Z,19.07
2019-02-19T00:47:18.980Z,19.08
2019-02-19T00:48:28.943Z,19.07
2019-02-19T00:49:38.422Z,19.1
2019-02-19T00:50:47.670Z,19.02
2019-02-19T00:51:57.143Z,19.04
2019-02-19T00:53:06.674Z,19.08
2019-02-19T00:54:16.400Z,19.1
2019-02-19T00:55:25.600Z,19.1
2019-02-19T00:56:35.325Z,19.1
2019-02-19T00:57:45.033Z,19.1
2019-02-19T00:58:54.752Z,19.08
2019-02-19T01:00:04.459Z,19.06
2019-02-19T01:01:14.197Z,19.08
2019-02-19T01:02:24.161Z,19.06
2019-02-19T01:03:34.150Z,19.06
2019-02-19T01:04:43.617Z,19.06
2019-02-19T01:05:53.568Z,18.99
2019-02-19T01:07:03.301Z,19.08
2019-02-19T01:08:13.061Z,18.94
2019-02-19T01:09:23.032Z,19.02
2019-02-19T01:10:32.494Z,19.06
2019-02-19T01:11:41.947Z,19.08
2019-02-19T01:15:31.816Z,18.91
2019-02-19T01:16:41.284Z,18.99
2019-02-19T01:17:50.764Z,18.98
2019-02-19T01:19:00.717Z,19.02
2019-02-19T01:20:10.398Z,18.98
2019-02-19T01:21:19.598Z,18.99
2019-02-19T01:22:29.278Z,18.94
2019-02-19T01:23:38.971Z,18.91
2019-02-19T01:24:48.915Z,18.95
2019-02-19T01:25:58.600Z,18.94
2019-02-19T01:27:08.545Z,19
2019-02-19T01:28:17.987Z,19
2019-02-19T01:29:27.686Z,18.91
2019-02-19T01:30:37.132Z,18.92
2019-02-19T01:31:46.818Z,19
2019-02-19T01:32:56.529Z,18.95
2019-02-19T01:34:06.226Z,18.91
2019-02-19T01:35:15.937Z,19.02
2019-02-19T01:36:25.885Z,18.91
2019-02-19T01:37:35.336Z,18.91
2019-02-19T01:38:45.026Z,18.94
2019-02-19T01:39:54.720Z,18.91
2019-02-19T01:41:04.166Z,18.94
2019-02-19T01:42:13.611Z,18.94
2019-02-19T01:43:23.055Z,18.88
2019-02-19T01:44:32.745Z,18.98
2019-02-19T01:45:42.679Z,18.99
2019-02-19T01:46:52.624Z,18.94
2019-02-19T01:48:02.317Z,18.94
2019-02-19T01:49:12.008Z,18.9
2019-02-19T01:50:21.952Z,18.91
2019-02-19T01:51:31.892Z,18.91
2019-02-19T01:52:41.359Z,18.98
2019-02-19T01:53:50.859Z,18.85
2019-02-19T01:55:00.844Z,18.95
2019-02-19T01:56:10.774Z,18.84
2019-02-19T01:57:20.469Z,18.81
2019-02-19T01:58:30.162Z,18.9
2019-02-19T01:59:39.357Z,18.85
2019-02-19T02:00:49.054Z,18.8
2019-02-19T02:01:58.770Z,18.85
2019-02-19T02:03:08.469Z,18.84
2019-02-19T02:04:17.904Z,18.82
2019-02-19T02:05:27.838Z,18.87
2019-02-19T02:06:37.523Z,18.85
2019-02-19T02:07:47.206Z,18.85
2019-02-19T02:08:57.143Z,18.81
2019-02-19T02:10:06.601Z,18.8
2019-02-19T02:11:16.307Z,18.81
2019-02-19T02:12:26.010Z,18.87
2019-02-19T02:13:35.462Z,18.85
2019-02-19T02:14:44.668Z,18.78
2019-02-19T02:15:54.107Z,18.73
2019-02-19T02:17:03.810Z,18.76
2019-02-19T02:18:13.746Z,18.82
2019-02-19T02:19:23.181Z,18.8
2019-02-19T02:20:32.632Z,18.67
2019-02-19T02:21:42.577Z,18.78
2019-02-19T02:22:52.527Z,18.73
2019-02-19T02:24:01.982Z,18.72
2019-02-19T02:25:11.983Z,18.85
2019-02-19T02:26:21.686Z,18.76
2019-02-19T02:27:31.394Z,18.78
2019-02-19T02:28:40.586Z,18.73
2019-02-19T02:29:50.271Z,18.8
2019-02-19T02:30:59.966Z,18.8
2019-02-19T02:32:09.438Z,18.73
2019-02-19T02:33:18.872Z,18.76
2019-02-19T02:34:28.586Z,18.78
2019-02-19T02:35:38.288Z,18.78
2019-02-19T02:36:48.229Z,18.8
2019-02-19T02:37:57.696Z,18.8
2019-02-19T02:39:07.389Z,18.8
2019-02-19T02:40:17.342Z,18.75
2019-02-19T02:41:26.803Z,18.75
2019-02-19T02:42:36.779Z,18.66
2019-02-19T02:43:46.247Z,18.65
2019-02-19T02:44:56.186Z,18.72
2019-02-19T02:46:06.213Z,18.76
2019-02-19T02:47:16.189Z,18.72
2019-02-19T02:48:26.142Z,18.76
2019-02-19T02:49:35.852Z,18.65
2019-02-19T02:50:45.793Z,18.72
2019-02-19T02:51:55.739Z,18.72
2019-02-19T02:53:05.686Z,18.62
2019-02-19T02:54:15.371Z,18.69
2019-02-19T02:55:25.331Z,18.72
2019-02-19T02:56:35.025Z,18.67
2019-02-19T02:57:44.714Z,18.67
2019-02-19T02:58:54.659Z,18.67
2019-02-19T03:00:04.381Z,18.62
2019-02-19T03:01:14.110Z,18.66
2019-02-19T03:02:23.802Z,18.63
2019-02-19T03:03:33.509Z,18.65
2019-02-19T03:04:43.465Z,18.67
2019-02-19T03:05:53.154Z,18.65
2019-02-19T03:07:03.113Z,18.65
2019-02-19T03:08:12.816Z,18.73
2019-02-19T03:09:21.999Z,18.62
2019-02-19T03:10:31.677Z,18.65
2019-02-19T03:11:41.700Z,18.65
2019-02-19T03:12:51.167Z,18.72
2019-02-19T03:14:01.141Z,18.72
2019-02-19T03:15:11.105Z,18.67
2019-02-19T03:16:21.062Z,18.67
2019-02-19T03:17:30.511Z,18.66
2019-02-19T03:18:40.461Z,18.63
2019-02-19T03:19:50.455Z,18.65
2019-02-19T03:20:59.888Z,18.57
2019-02-19T03:22:09.575Z,18.63
2019-02-19T03:23:19.271Z,18.65
2019-02-19T03:24:28.958Z,18.66
2019-02-19T03:25:38.664Z,18.63
2019-02-19T03:26:48.356Z,18.6
2019-02-19T03:27:58.298Z,18.62
2019-02-19T03:29:08.255Z,18.62
2019-02-19T03:30:18.004Z,18.62
2019-02-19T03:31:27.727Z,18.63
2019-02-19T03:32:37.702Z,18.58
2019-02-19T03:33:47.412Z,18.67
2019-02-19T03:34:57.398Z,18.57
2019-02-19T03:36:07.352Z,18.6
2019-02-19T03:37:17.305Z,18.58
2019-02-19T03:38:27.252Z,18.58
2019-02-19T03:39:36.953Z,18.55
2019-02-19T03:40:46.935Z,18.57
2019-02-19T03:41:56.641Z,18.62
2019-02-19T03:43:06.332Z,18.58
2019-02-19T03:44:16.039Z,18.55
2019-02-19T03:45:25.488Z,18.54
2019-02-19T03:46:35.454Z,18.57
2019-02-19T03:47:45.142Z,18.57
2019-02-19T03:48:54.882Z,18.57
2019-02-19T03:50:04.171Z,18.62
2019-02-19T03:51:13.621Z,18.57
2019-02-19T03:52:23.617Z,18.57
2019-02-19T03:53:33.065Z,18.54
2019-02-19T03:54:43.003Z,18.51
2019-02-19T03:55:52.711Z,18.55
2019-02-19T03:57:02.659Z,18.55
2019-02-19T03:58:12.615Z,18.52
2019-02-19T03:59:22.388Z,18.52
2019-02-19T04:00:32.340Z,18.54
2019-02-19T04:01:42.041Z,18.54
2019-02-19T04:02:52.009Z,18.57
2019-02-19T04:04:01.724Z,18.55
2019-02-19T04:05:11.447Z,18.5
2019-02-19T04:06:21.156Z,18.6
2019-02-19T04:07:31.120Z,18.47
2019-02-19T04:08:41.064Z,18.55
2019-02-19T04:09:50.759Z,18.58
2019-02-19T04:11:00.473Z,18.55
2019-02-19T04:12:10.173Z,18.58
2019-02-19T04:13:20.125Z,18.57
2019-02-19T04:14:29.563Z,18.52
2019-02-19T04:15:39.016Z,18.55
2019-02-19T04:16:48.988Z,18.57
2019-02-19T04:17:58.964Z,18.52
2019-02-19T04:19:08.924Z,18.42
2019-02-19T04:20:18.862Z,18.55
2019-02-19T04:21:28.302Z,18.54
2019-02-19T04:22:38.262Z,18.45
2019-02-19T04:23:47.981Z,18.54
2019-02-19T04:24:57.929Z,18.52
2019-02-19T04:26:07.683Z,18.51
2019-02-19T04:27:19.324Z,18.52
2019-02-19T04:28:29.013Z,18.51
2019-02-19T04:29:38.966Z,18.51
2019-02-19T04:30:48.698Z,18.5
2019-02-19T04:31:58.693Z,18.47
2019-02-19T04:33:08.633Z,18.51
2019-02-19T04:34:18.334Z,18.47
2019-02-19T04:35:28.274Z,18.51
2019-02-19T04:36:37.967Z,18.48
2019-02-19T04:37:47.690Z,18.47
2019-02-19T04:38:57.391Z,18.48
2019-02-19T04:40:07.353Z,18.52
2019-02-19T04:41:16.800Z,18.52
2019-02-19T04:42:26.499Z,18.51
2019-02-19T04:43:36.437Z,18.41
2019-02-19T04:44:46.383Z,18.47
2019-02-19T04:45:56.089Z,18.45
2019-02-19T04:47:05.555Z,18.47
2019-02-19T04:48:15.267Z,18.47
2019-02-19T04:49:24.971Z,18.45
2019-02-19T04:50:34.914Z,18.48
2019-02-19T04:51:44.371Z,18.55
2019-02-19T04:52:54.350Z,18.48
2019-02-19T04:54:03.548Z,18.45
2019-02-19T04:55:13.229Z,18.51
2019-02-19T04:56:24.049Z,18.48
2019-02-19T04:57:34.076Z,18.44
2019-02-19T04:58:43.797Z,18.42
2019-02-19T04:59:53.772Z,18.42
2019-02-19T05:01:03.714Z,18.47
2019-02-19T05:02:13.400Z,18.42
2019-02-19T05:03:22.833Z,18.52
2019-02-19T05:04:32.512Z,18.41
2019-02-19T05:05:42.214Z,18.48
2019-02-19T05:06:51.909Z,18.36
2019-02-19T05:08:01.607Z,18.41
2019-02-19T05:09:11.308Z,18.39
2019-02-19T05:10:20.765Z,18.41
2019-02-19T05:11:30.459Z,18.39
2019-02-19T05:12:39.896Z,18.45
2019-02-19T05:13:49.338Z,18.39
2019-02-19T05:14:58.797Z,18.41
2019-02-19T05:16:08.244Z,18.44
2019-02-19T05:17:18.866Z,18.44
2019-02-19T05:18:28.319Z,18.51
2019-02-19T05:19:37.525Z,18.41
2019-02-19T05:20:47.463Z,18.39
2019-02-19T05:21:57.167Z,18.41
2019-02-19T05:23:07.551Z,18.39
2019-02-19T05:24:17.310Z,18.41
2019-02-19T05:25:26.523Z,18.42
2019-02-19T05:26:35.981Z,18.33
2019-02-19T05:27:45.938Z,18.42
2019-02-19T05:28:55.888Z,18.39
2019-02-19T05:30:05.339Z,18.42
2019-02-19T05:31:14.791Z,18.35
2019-02-19T05:32:24.501Z,18.41
2019-02-19T05:33:34.181Z,18.39
2019-02-19T05:34:43.621Z,18.39
2019-02-19T05:35:52.863Z,18.37
2019-02-19T05:37:02.556Z,18.33
2019-02-19T05:38:12.519Z,18.27
2019-02-19T05:39:22.217Z,18.26
2019-02-19T05:40:31.708Z,18.33
2019-02-19T05:41:41.139Z,18.29
2019-02-19T05:42:50.613Z,18.18
2019-02-19T05:44:00.324Z,18.2
2019-02-19T05:45:10.271Z,18.25
2019-02-19T05:46:20.217Z,18.15
2019-02-19T05:47:30.179Z,18.2
2019-02-19T05:48:40.220Z,18.25
2019-02-19T05:49:50.156Z,18.21
2019-02-19T05:50:59.858Z,18.21
2019-02-19T05:52:09.302Z,18.14
2019-02-19T05:53:19.013Z,18.2
2019-02-19T05:54:28.992Z,18.14
2019-02-19T05:55:38.720Z,18.15
2019-02-19T05:56:48.188Z,18.12
2019-02-19T05:57:57.445Z,18.1
2019-02-19T05:59:07.422Z,18.1
2019-02-19T06:00:17.383Z,18.05
2019-02-19T06:01:27.092Z,18.1
2019-02-19T06:02:36.783Z,18.14
2019-02-19T06:03:46.228Z,18.2
2019-02-19T06:04:55.666Z,18.21
2019-02-19T06:06:05.616Z,18.17
2019-02-19T06:07:15.312Z,18.2
2019-02-19T06:08:25.017Z,18.14
2019-02-19T06:09:34.719Z,18.2
2019-02-19T06:10:46.627Z,18.14
2019-02-19T06:11:56.575Z,18.21
2019-02-19T06:13:06.516Z,18.17
2019-02-19T06:14:16.451Z,18.14
2019-02-19T06:15:26.418Z,18.18
2019-02-19T06:16:36.116Z,18.21
2019-02-19T06:17:46.062Z,18.21
2019-02-19T06:18:56.025Z,18.1
2019-02-19T06:20:05.982Z,18.15
2019-02-19T06:21:15.942Z,18.21
2019-02-19T06:22:25.645Z,18.14
2019-02-19T06:23:35.106Z,18.18
2019-02-19T06:24:44.827Z,18.18
2019-02-19T06:25:54.586Z,18.15
2019-02-19T06:27:04.161Z,18.2
2019-02-19T06:28:13.870Z,18.17
2019-02-19T06:29:23.805Z,18.25
2019-02-19T06:30:33.753Z,18.21
2019-02-19T06:31:43.453Z,18.2
2019-02-19T06:32:52.894Z,18.23
2019-02-19T06:34:02.846Z,18.17
2019-02-19T06:35:12.823Z,18.15
2019-02-19T06:36:22.278Z,18.2
2019-02-19T06:37:31.983Z,18.15
2019-02-19T06:38:41.957Z,18.23
2019-02-19T06:39:51.400Z,18.15
2019-02-19T06:41:01.943Z,18.2
2019-02-19T06:42:11.261Z,18.18
2019-02-19T06:43:21.208Z,18.23
2019-02-19T06:44:30.896Z,18.25
2019-02-19T06:45:40.332Z,18.25
2019-02-19T06:46:50.264Z,18.17
2019-02-19T06:48:00.232Z,18.18
2019-02-19T06:49:10.182Z,18.18
2019-02-19T06:50:20.173Z,18.18
2019-02-19T06:51:29.889Z,18.25
2019-02-19T06:52:39.819Z,18.14
2019-02-19T06:53:49.271Z,18.2
2019-02-19T06:54:59.256Z,18.23
2019-02-19T06:56:08.704Z,18.18
2019-02-19T06:57:18.404Z,18.2
2019-02-19T06:58:28.343Z,18.1
2019-02-19T06:59:38.032Z,18.26
2019-02-19T07:00:47.715Z,18.18
2019-02-19T07:01:57.146Z,18.1
2019-02-19T07:03:07.084Z,18.26
2019-02-19T07:04:17.027Z,18.25
2019-02-19T07:05:26.718Z,18.25
2019-02-19T07:06:36.186Z,18.25
2019-02-19T07:07:45.403Z,18.27
2019-02-19T07:08:55.086Z,18.17
2019-02-19T07:10:04.806Z,18.2
2019-02-19T07:11:14.497Z,18.23
2019-02-19T07:12:24.199Z,18.27
2019-02-19T07:13:33.899Z,18.26
2019-02-19T07:14:43.337Z,18.15
2019-02-19T07:15:52.812Z,18.11
2019-02-19T07:17:02.751Z,18.26
2019-02-19T07:18:21.176Z,18.21
2019-02-19T07:19:30.933Z,18.23
2019-02-19T07:20:40.632Z,18.15
2019-02-19T07:21:50.338Z,18.29
2019-02-19T07:22:59.538Z,18.21
2019-02-19T07:24:09.621Z,18.18
2019-02-19T07:25:19.567Z,18.18
2019-02-19T07:26:29.560Z,18.23
2019-02-19T07:27:39.521Z,18.17
2019-02-19T07:28:48.713Z,18.11
2019-02-19T07:29:58.146Z,18.21
2019-02-19T07:31:08.092Z,18.12
2019-02-19T07:32:18.047Z,18.15
2019-02-19T07:33:27.758Z,18.11
2019-02-19T07:34:37.746Z,18.23
2019-02-19T07:35:48.394Z,18.17
2019-02-19T07:36:58.357Z,18.21
2019-02-19T07:38:08.050Z,18.12
2019-02-19T07:39:17.749Z,18.15
2019-02-19T07:40:27.693Z,18.11
2019-02-19T07:41:36.888Z,18.11
2019-02-19T07:42:46.584Z,18.11
2019-02-19T07:43:56.645Z,18.2
2019-02-19T07:45:06.594Z,18.25
2019-02-19T07:46:16.278Z,18.12
2019-02-19T07:47:29.311Z,18.17
2019-02-19T07:48:39.249Z,18.12
2019-02-19T07:49:48.249Z,18.27
2019-02-19T07:50:57.944Z,18.3
2019-02-19T07:52:07.884Z,18.17
2019-02-19T07:53:17.840Z,18.23
2019-02-19T07:54:27.817Z,18.12
2019-02-19T07:55:37.832Z,18.23
2019-02-19T07:56:47.526Z,18.11
2019-02-19T07:57:57.283Z,18.33
2019-02-19T07:59:07.216Z,18.12
2019-02-19T08:00:16.659Z,18.21
2019-02-19T08:01:26.351Z,18.12
2019-02-19T08:02:36.053Z,18.2
2019-02-19T08:03:45.744Z,18.14
2019-02-19T08:04:55.187Z,18.29
2019-02-19T08:06:04.877Z,18.1
2019-02-19T08:07:14.818Z,18.25
2019-02-19T08:08:24.772Z,18.18
2019-02-19T08:09:34.727Z,18.18
2019-02-19T08:10:44.421Z,18.15
2019-02-19T08:11:53.856Z,18.25
2019-02-19T08:13:03.558Z,18.33
2019-02-19T08:14:13.271Z,18.15
2019-02-19T08:15:22.989Z,18.17
2019-02-19T08:16:32.950Z,18.26
2019-02-19T08:17:42.665Z,18.14
2019-02-19T08:18:52.634Z,18.15
2019-02-19T08:20:02.868Z,18.1
2019-02-19T08:21:20.915Z,18.18
2019-02-19T08:22:31.014Z,18.15
2019-02-19T08:23:40.455Z,18.25
2019-02-19T08:24:49.892Z,18.12
2019-02-19T08:25:59.339Z,18.27
2019-02-19T08:27:09.056Z,18.2
2019-02-19T08:28:18.752Z,18.32
2019-02-19T08:29:28.199Z,18.37
2019-02-19T08:30:37.651Z,18.3
2019-02-19T08:31:47.350Z,18.44
2019-02-19T08:32:57.294Z,18.47
2019-02-19T08:34:07.246Z,18.54
2019-02-19T08:35:16.940Z,18.55
2019-02-19T08:36:26.872Z,18.54
2019-02-19T08:37:37.001Z,18.52
2019-02-19T08:38:47.907Z,18.57
2019-02-19T08:39:57.591Z,18.63
2019-02-19T08:41:07.049Z,18.72
2019-02-19T08:42:16.998Z,18.73
2019-02-19T08:43:26.493Z,18.76
2019-02-19T08:44:35.678Z,18.82
2019-02-19T08:45:45.124Z,18.87
2019-02-19T08:46:54.328Z,18.85
2019-02-19T08:48:03.522Z,18.92
2019-02-19T08:49:12.958Z,18.92
2019-02-19T08:50:22.403Z,19.11
2019-02-19T08:51:31.863Z,19.07
2019-02-19T08:52:41.806Z,19.07
2019-02-19T08:53:51.746Z,19.08
2019-02-19T08:55:01.745Z,19.02
2019-02-19T08:56:11.192Z,18.87
2019-02-19T08:57:21.136Z,18.92
2019-02-19T08:58:31.095Z,18.95
2019-02-19T08:59:41.038Z,18.95
2019-02-19T09:00:50.733Z,18.85
2019-02-19T09:02:00.426Z,18.85
2019-02-19T09:03:10.122Z,18.84
2019-02-19T09:04:22.119Z,18.84
2019-02-19T09:05:32.074Z,18.84
2019-02-19T09:06:42.027Z,18.78
2019-02-19T09:07:51.279Z,18.8
2019-02-19T09:09:01.214Z,18.8
2019-02-19T09:10:11.163Z,18.72
2019-02-19T09:11:20.860Z,18.8
2019-02-19T09:12:30.559Z,18.76
2019-02-19T09:13:39.997Z,18.73
2019-02-19T09:14:51.813Z,18.75
2019-02-19T09:16:01.761Z,18.76
2019-02-19T09:17:11.750Z,18.75
2019-02-19T09:18:21.696Z,18.69
2019-02-19T09:19:31.489Z,18.66
2019-02-19T09:20:41.752Z,18.65
2019-02-19T09:21:51.480Z,18.65
2019-02-19T09:23:01.441Z,18.67
2019-02-19T09:24:14.493Z,18.67
2019-02-19T09:25:24.008Z,18.67
2019-02-19T09:26:33.954Z,18.65
2019-02-19T09:27:45.781Z,18.66
2019-02-19T09:28:55.488Z,18.73
2019-02-19T09:30:05.189Z,18.67
2019-02-19T09:31:15.136Z,18.65
2019-02-19T09:32:24.822Z,18.67
2019-02-19T09:33:34.535Z,18.7
2019-02-19T09:34:43.728Z,18.72
2019-02-19T09:35:53.683Z,18.62
2019-02-19T09:37:03.371Z,18.67
2019-02-19T09:38:13.068Z,18.67
2019-02-19T09:39:22.805Z,18.7
2019-02-19T09:40:33.545Z,18.65
2019-02-19T09:41:43.321Z,18.6
2019-02-19T09:42:53.258Z,18.7
2019-02-19T09:44:02.943Z,18.65
2019-02-19T09:45:12.880Z,18.7
2019-02-19T09:46:22.836Z,18.72
2019-02-19T09:47:32.786Z,18.63
2019-02-19T09:48:42.484Z,18.67
2019-02-19T09:49:52.475Z,18.67
2019-02-19T09:51:02.417Z,18.62
2019-02-19T09:52:12.356Z,18.69
2019-02-19T09:53:22.319Z,18.65
2019-02-19T09:54:31.768Z,18.62
2019-02-19T09:55:41.214Z,18.66
2019-02-19T09:56:51.528Z,18.62
2019-02-19T09:58:01.476Z,18.67
2019-02-19T09:59:11.434Z,18.73
2019-02-19T10:00:21.123Z,18.66
2019-02-19T10:01:33.202Z,18.65
2019-02-19T10:02:43.879Z,18.67
2019-02-19T10:03:53.941Z,18.67
2019-02-19T10:05:03.634Z,18.67
2019-02-19T10:06:13.599Z,18.73
2019-02-19T10:07:24.232Z,18.62
2019-02-19T10:08:33.933Z,18.69
2019-02-19T10:09:43.880Z,18.65
2019-02-19T10:10:53.833Z,18.67
2019-02-19T10:12:03.275Z,18.62
2019-02-19T10:13:13.251Z,18.67
2019-02-19T10:14:23.238Z,18.69
2019-02-19T10:15:33.210Z,18.7
2019-02-19T10:16:46.596Z,18.69
2019-02-19T10:17:56.279Z,18.67
2019-02-19T10:19:15.232Z,18.66
2019-02-19T10:20:24.932Z,18.65
2019-02-19T10:21:35.028Z,18.65
2019-02-19T10:22:44.977Z,18.67
2019-02-19T10:23:54.922Z,18.6
2019-02-19T10:25:04.773Z,18.65
2019-02-19T10:26:14.218Z,18.69
2019-02-19T10:27:23.413Z,18.7
2019-02-19T10:28:32.854Z,18.66
2019-02-19T10:29:42.794Z,18.65
2019-02-19T10:30:52.239Z,18.67
2019-02-19T10:32:01.682Z,18.75
2019-02-19T10:33:11.150Z,18.65
2019-02-19T10:34:20.598Z,18.65
2019-02-19T10:35:30.311Z,18.67
2019-02-19T10:36:41.071Z,18.66
2019-02-19T10:37:51.745Z,18.66
2019-02-19T10:39:01.817Z,18.69
2019-02-19T10:40:11.265Z,18.62
2019-02-19T10:41:20.714Z,18.62
2019-02-19T10:42:30.405Z,18.65
2019-02-19T10:43:39.861Z,18.69
2019-02-19T10:44:49.797Z,18.66
2019-02-19T10:45:59.749Z,18.62
2019-02-19T10:47:09.454Z,18.65
2019-02-19T10:48:24.058Z,18.65
2019-02-19T10:49:33.535Z,18.65
2019-02-19T10:50:43.257Z,18.7
2019-02-19T10:51:53.236Z,18.66
2019-02-19T10:53:03.191Z,18.69
2019-02-19T10:54:12.899Z,18.67
2019-02-19T10:55:22.621Z,18.58
2019-02-19T10:56:32.575Z,18.7
2019-02-19T10:57:42.285Z,18.65
2019-02-19T10:58:51.722Z,18.66
2019-02-19T11:00:01.414Z,18.65
2019-02-19T11:01:11.359Z,18.67
2019-02-19T11:02:21.045Z,18.66
2019-02-19T11:03:30.775Z,18.6
2019-02-19T11:04:42.404Z,18.62
2019-02-19T11:05:52.088Z,18.67
2019-02-19T11:07:01.800Z,18.65
2019-02-19T11:08:11.492Z,18.65
2019-02-19T11:09:21.463Z,18.66
2019-02-19T11:10:31.392Z,18.62
2019-02-19T11:11:40.842Z,18.7
2019-02-19T11:12:50.055Z,18.66
2019-02-19T11:13:59.509Z,18.67
2019-02-19T11:15:09.531Z,18.69
2019-02-19T11:16:18.985Z,18.72
2019-02-19T11:17:27.943Z,18.67
2019-02-19T11:18:37.883Z,18.65
2019-02-19T11:19:47.599Z,18.75
2019-02-19T11:20:57.055Z,18.66
2019-02-19T11:22:06.506Z,18.65
2019-02-19T11:23:16.211Z,18.7
2019-02-19T11:24:25.905Z,18.81
2019-02-19T11:25:35.350Z,18.81
2019-02-19T11:26:45.030Z,18.65
2019-02-19T11:27:54.722Z,18.78
2019-02-19T11:29:04.652Z,18.7
2019-02-19T11:30:14.137Z,18.75
2019-02-19T11:31:25.757Z,18.75
2019-02-19T11:32:35.249Z,18.76
2019-02-19T11:33:45.203Z,18.78
2019-02-19T11:34:55.144Z,18.78
2019-02-19T11:36:04.851Z,18.76
2019-02-19T11:37:14.597Z,18.75
2019-02-19T11:38:24.324Z,18.81
2019-02-19T11:39:34.010Z,18.78
2019-02-19T11:40:43.957Z,18.75
2019-02-19T11:41:53.644Z,18.7
2019-02-19T11:43:03.583Z,18.75
2019-02-19T11:44:12.786Z,18.81
2019-02-19T11:45:22.482Z,18.76
2019-02-19T11:46:32.176Z,18.8
2019-02-19T11:47:41.615Z,18.75
2019-02-19T11:48:51.321Z,18.8
2019-02-19T11:50:01.548Z,18.73
2019-02-19T11:51:10.742Z,18.81
2019-02-19T11:52:20.471Z,18.72
2019-02-19T11:53:30.436Z,18.69
2019-02-19T11:54:40.120Z,18.76
2019-02-19T11:55:50.052Z,18.75
2019-02-19T11:56:59.744Z,18.75
2019-02-19T11:58:09.689Z,18.75
2019-02-19T11:59:19.391Z,18.78
2019-02-19T12:00:28.602Z,18.75
2019-02-19T12:01:38.293Z,18.75
2019-02-19T12:02:48.009Z,18.72
2019-02-19T12:03:57.208Z,18.75
2019-02-19T12:05:07.045Z,18.76
2019-02-19T12:06:17.041Z,18.76
2019-02-19T12:07:26.727Z,18.82
2019-02-19T12:08:43.856Z,18.81
2019-02-19T12:09:53.815Z,18.73
2019-02-19T12:11:03.276Z,18.8
2019-02-19T12:12:13.220Z,18.78
2019-02-19T12:13:22.665Z,18.78
2019-02-19T12:14:32.367Z,18.82
2019-02-19T12:15:42.313Z,18.78
2019-02-19T12:16:52.249Z,18.76
2019-02-19T12:18:02.217Z,18.8
2019-02-19T12:19:11.929Z,18.85
2019-02-19T12:20:21.624Z,18.76
2019-02-19T12:21:31.575Z,18.81
2019-02-19T12:22:41.542Z,18.82
2019-02-19T12:23:51.249Z,18.76
2019-02-19T12:25:00.441Z,18.87
2019-02-19T12:26:10.152Z,18.82
2019-02-19T12:27:19.887Z,18.85
2019-02-19T12:28:29.641Z,18.98
2019-02-19T12:29:39.167Z,18.91
2019-02-19T12:30:48.683Z,18.92
2019-02-19T12:31:58.164Z,18.98
2019-02-19T12:33:08.120Z,19.06
2019-02-19T12:34:17.805Z,19.06
2019-02-19T12:35:27.517Z,19.11
2019-02-19T12:36:37.479Z,19.16
2019-02-19T12:37:47.414Z,19.19
2019-02-19T12:38:56.602Z,19.22
2019-02-19T12:40:06.294Z,19.28
2019-02-19T12:41:16.239Z,19.29
2019-02-19T12:42:25.930Z,19.36
2019-02-19T12:43:35.624Z,19.4
2019-02-19T12:44:45.314Z,19.39
2019-02-19T12:45:54.251Z,19.46
2019-02-19T12:47:03.938Z,19.44
2019-02-19T12:48:13.391Z,19.46
2019-02-19T12:49:23.104Z,19.47
2019-02-19T12:50:33.048Z,19.48
2019-02-19T12:51:42.505Z,19.48
2019-02-19T12:52:52.448Z,19.48
2019-02-19T12:54:02.391Z,19.44
2019-02-19T12:55:12.346Z,19.48
2019-02-19T12:56:22.037Z,19.65
2019-02-19T12:57:31.480Z,19.61
2019-02-19T12:58:41.910Z,19.77
2019-02-19T12:59:59.007Z,19.68
2019-02-19T13:01:08.742Z,19.69
2019-02-19T13:02:19.692Z,19.58
2019-02-19T13:03:29.769Z,19.71
2019-02-19T13:04:39.526Z,19.56
2019-02-19T13:05:49.490Z,19.65
2019-02-19T13:06:59.190Z,19.61
2019-02-19T13:08:09.142Z,19.59
2019-02-19T13:09:19.080Z,19.54
2019-02-19T13:10:28.772Z,19.58
2019-02-19T13:11:38.725Z,19.54
2019-02-19T13:12:49.101Z,19.48
2019-02-19T13:13:58.893Z,19.44
2019-02-19T13:15:08.637Z,19.46
2019-02-19T13:16:18.340Z,19.47
2019-02-19T13:17:28.095Z,19.47
2019-02-19T13:18:37.533Z,19.39
2019-02-19T13:19:47.220Z,19.44
2019-02-19T13:20:57.153Z,19.47
2019-02-19T13:22:06.878Z,19.4
2019-02-19T13:23:16.818Z,19.4
2019-02-19T13:24:26.771Z,19.39
2019-02-19T13:25:36.479Z,19.41
2019-02-19T13:26:46.185Z,19.43
2019-02-19T13:27:55.888Z,19.43
2019-02-19T13:29:05.581Z,19.41
2019-02-19T13:30:15.535Z,19.41
2019-02-19T13:31:25.489Z,19.43
2019-02-19T13:32:35.434Z,19.4
2019-02-19T13:33:44.869Z,19.43
2019-02-19T13:34:54.567Z,19.39
2019-02-19T13:36:04.263Z,19.36
2019-02-19T13:37:13.959Z,19.46
2019-02-19T13:38:23.403Z,19.51
2019-02-19T13:39:33.339Z,19.51
2019-02-19T13:40:42.788Z,19.56
2019-02-19T13:41:52.485Z,19.54
2019-02-19T13:43:02.432Z,19.51
2019-02-19T13:44:12.123Z,19.48
2019-02-19T13:45:21.819Z,19.54
2019-02-19T13:46:31.797Z,19.51
2019-02-19T13:47:41.513Z,19.5
2019-02-19T13:48:51.210Z,19.54
2019-02-19T13:50:00.642Z,19.61
2019-02-19T13:51:10.329Z,19.59
2019-02-19T13:52:27.487Z,19.58
2019-02-19T13:53:37.419Z,19.58
2019-02-19T13:54:46.903Z,19.61
2019-02-19T13:55:56.376Z,19.55
2019-02-19T13:57:06.322Z,19.55
2019-02-19T13:58:15.506Z,19.63
2019-02-19T13:59:25.464Z,19.56
2019-02-19T14:00:35.182Z,19.55
2019-02-19T14:01:44.875Z,19.5
2019-02-19T14:02:54.833Z,19.46
2019-02-19T14:04:04.518Z,19.44
2019-02-19T14:05:14.218Z,19.47
2019-02-19T14:06:23.943Z,19.51
2019-02-19T14:07:33.405Z,19.48
2019-02-19T14:08:43.097Z,19.46
2019-02-19T14:09:53.068Z,19.5
2019-02-19T14:11:02.770Z,19.43
2019-02-19T14:12:12.220Z,19.44
2019-02-19T14:13:21.670Z,19.44
2019-02-19T14:14:31.376Z,19.46
2019-02-19T14:15:41.315Z,19.41
2019-02-19T14:16:52.125Z,19.44
2019-02-19T14:18:01.932Z,19.44
2019-02-19T14:19:11.883Z,19.44
2019-02-19T14:20:28.693Z,19.37
2019-02-19T14:21:38.388Z,19.46
2019-02-19T14:22:48.084Z,19.44
2019-02-19T14:23:57.533Z,19.43
2019-02-19T14:25:06.971Z,19.44
2019-02-19T14:26:16.907Z,19.43
2019-02-19T14:27:26.845Z,19.51
2019-02-19T14:28:36.880Z,19.41
2019-02-19T14:29:46.566Z,19.39
2019-02-19T14:30:55.503Z,19.51
2019-02-19T14:32:05.203Z,19.44
2019-02-19T14:33:14.890Z,19.41
2019-02-19T14:34:24.145Z,19.44
2019-02-19T14:35:33.902Z,19.39
2019-02-19T14:36:43.839Z,19.39
2019-02-19T14:37:53.799Z,19.44
2019-02-19T14:39:03.513Z,19.43
2019-02-19T14:40:15.407Z,19.5
2019-02-19T14:41:24.628Z,19.48
2019-02-19T14:42:34.559Z,19.54
2019-02-19T14:43:44.263Z,19.58
2019-02-19T14:44:53.964Z,19.54
2019-02-19T14:46:03.644Z,19.54
2019-02-19T14:47:13.613Z,19.51
2019-02-19T14:48:23.357Z,19.51
2019-02-19T14:49:49.804Z,19.48
2019-02-19T14:50:59.772Z,19.48
2019-02-19T14:52:09.500Z,19.48
2019-02-19T14:53:19.456Z,19.44
2019-02-19T14:54:28.907Z,19.46
2019-02-19T14:55:38.861Z,19.36
2019-02-19T14:56:48.816Z,19.43
2019-02-19T14:57:58.303Z,19.37
2019-02-19T14:59:07.791Z,19.41
2019-02-19T15:00:17.777Z,19.4
2019-02-19T15:01:27.476Z,19.4
2019-02-19T15:02:37.621Z,19.4
2019-02-19T15:03:47.531Z,19.39
2019-02-19T15:04:57.519Z,19.33
2019-02-19T15:06:07.231Z,19.4